Airfield :
LOGIN :

Register | Disclaimer

   EN    FR    IT 

 










Legend :    VFR   Marginal VFR   IFR   Intensive IFR   Very Intensive IFR
Visi :
Ceiling :
>= 8 km
>= 3000ft
5 to 8 km
1000 to 3000 ft
1500m to 5 km
500 to 1000 ft
800 to 1500m
200 to 500 ft
< 800m
< 200 ft
Symbols :   Thunderstorms  Fog  Heavy snow  Heavy precipitations  Wind > 20 kt
SIGMETs :     Misc.  Thunderstorms  Icing  Turbulence  Mountain Waves  Volcanic Ashes






- Airport Elevation : 459 ft
- IATA code : CER


LFRC - Cherbourg / Maupertus

CURRENT METAR :
  • 190930Z AUTO 21008KT 9999 ///TCU 12/10 Q1002 TEMPO 4000 SHRA BKN020CB

EXPIRED METARs :
  • 190900Z AUTO 21009KT CAVOK 11/09 Q1002 TEMPO 4000 SHRA BKN020CB
  • 190830Z AUTO 23011KT 9999 FEW045 SCT090 BKN110 11/09 Q1002 TEMPO 4000 SHRA BKN020CB
  • 190800Z AUTO 22012KT 9999 ///TCU 11/09 Q1002 TEMPO 3000 SHRA BKN020CB
  • 190730Z AUTO 22011KT 9999 ///TCU 10/09 Q1002 TEMPO 3000 SHRA BKN020CB
  • 190700Z AUTO 22011KT 9999 ///CB 10/09 Q1001 TEMPO 24015G25KT 3000 SHRA
  • 190630Z AUTO 21009KT 9999 -RA FEW026/// SCT056/// BKN068/// ///CB 10/09 Q1001 TEMPO 24015G25KT 3000 SHRA

TAF TAF LFRC
Valid from the 19 at 09:00 until the 19 at 18:00 UTC


190800Z 1909/1918 24010KT 9999 SCT020
TEMPO 1909/1918 5000 SHRA BKN020TCU
PROB40
TEMPO 1909/1916 4000 SHRA BKN020CB
BECMG 1916/1918 VRB03KT



MET'MAP, your aeronautical weather chart ! - Copyright ORBIFLY December 2007 - Disclaimer

ORBIFLY MET'MAP TEAM :

Programming & Development : Alexandra Zaïnal
Concept & Development : Baudouin d'Aumeries
Co-Development & Prog : Marc-Olivier Méhu
Technical & hardware support : Manuel Goepfert

Contact : metmap@orbifly.com




SOURCES & CREDITS :

   NOAA